sensor_id;sensor_type;location;lat;lon;timestamp;P1;durP1;ratioP1;P2;durP2;ratioP2
59659;SDS011;45534;52.690;6.268;2023-04-01T00:00:19;6.18;;;4.72;;
59659;SDS011;45534;52.690;6.268;2023-04-01T00:02:45;5.28;;;3.55;;
59659;SDS011;45534;52.690;6.268;2023-04-01T00:05:11;4.68;;;4.15;;
59659;SDS011;45534;52.690;6.268;2023-04-01T00:07:37;5.00;;;4.07;;
59659;SDS011;45534;52.690;6.268;2023-04-01T00:10:04;6.57;;;3.45;;
59659;SDS011;45534;52.690;6.268;2023-04-01T00:12:31;4.22;;;3.35;;
59659;SDS011;45534;52.690;6.268;2023-04-01T00:14:57;3.25;;;2.75;;
59659;SDS011;45534;52.690;6.268;2023-04-01T00:17:23;4.47;;;2.97;;
59659;SDS011;45534;52.690;6.268;2023-04-01T00:19:48;5.55;;;2.83;;
59659;SDS011;45534;52.690;6.268;2023-04-01T00:22:14;6.20;;;4.30;;
59659;SDS011;45534;52.690;6.268;2023-04-01T00:24:40;3.95;;;3.13;;
59659;SDS011;45534;52.690;6.268;2023-04-01T00:27:06;5.15;;;3.00;;
59659;SDS011;45534;52.690;6.268;2023-04-01T00:29:33;7.03;;;3.45;;
59659;SDS011;45534;52.690;6.268;2023-04-01T00:32:00;4.07;;;2.83;;
59659;SDS011;45534;52.690;6.268;2023-04-01T00:34:26;5.00;;;3.40;;
59659;SDS011;45534;52.690;6.268;2023-04-01T00:36:52;4.43;;;3.08;;
59659;SDS011;45534;52.690;6.268;2023-04-01T00:39:19;4.63;;;3.20;;
59659;SDS011;45534;52.690;6.268;2023-04-01T00:41:46;8.45;;;4.30;;
59659;SDS011;45534;52.690;6.268;2023-04-01T00:44:19;3.67;;;2.60;;
59659;SDS011;45534;52.690;6.268;2023-04-01T00:46:47;3.28;;;2.88;;
59659;SDS011;45534;52.690;6.268;2023-04-01T00:49:14;5.72;;;3.78;;
59659;SDS011;45534;52.690;6.268;2023-04-01T00:51:42;4.95;;;3.13;;
59659;SDS011;45534;52.690;6.268;2023-04-01T00:54:10;5.80;;;3.53;;
59659;SDS011;45534;52.690;6.268;2023-04-01T00:56:38;4.55;;;3.28;;
59659;SDS011;45534;52.690;6.268;2023-04-01T00:59:11;6.97;;;4.03;;
59659;SDS011;45534;52.690;6.268;2023-04-01T01:01:41;8.13;;;3.60;;
59659;SDS011;45534;52.690;6.268;2023-04-01T01:04:06;8.88;;;4.25;;
59659;SDS011;45534;52.690;6.268;2023-04-01T01:09:52;8.23;;;3.95;;
59659;SDS011;45534;52.690;6.268;2023-04-01T01:15:19;8.68;;;3.33;;
59659;SDS011;45534;52.690;6.268;2023-04-01T01:18:28;5.18;;;3.70;;
59659;SDS011;45534;52.690;6.268;2023-04-01T01:36:32;9.88;;;4.55;;
59659;SDS011;45534;52.690;6.268;2023-04-01T01:39:00;7.32;;;4.25;;
59659;SDS011;45534;52.690;6.268;2023-04-01T01:41:28;5.75;;;3.53;;
59659;SDS011;45534;52.690;6.268;2023-04-01T01:43:55;8.30;;;3.70;;
59659;SDS011;45534;52.690;6.268;2023-04-01T01:46:23;9.43;;;4.25;;
59659;SDS011;45534;52.690;6.268;2023-04-01T01:48:51;10.30;;;5.00;;
59659;SDS011;45534;52.690;6.268;2023-04-01T01:51:18;4.72;;;3.95;;
59659;SDS011;45534;52.690;6.268;2023-04-01T01:53:46;7.53;;;4.75;;
59659;SDS011;45534;52.690;6.268;2023-04-01T01:56:12;6.22;;;4.32;;
59659;SDS011;45534;52.690;6.268;2023-04-01T01:58:45;5.70;;;3.60;;
59659;SDS011;45534;52.690;6.268;2023-04-01T02:01:19;8.18;;;3.78;;
59659;SDS011;45534;52.690;6.268;2023-04-01T02:03:48;6.45;;;3.97;;
59659;SDS011;45534;52.690;6.268;2023-04-01T02:06:17;9.23;;;4.38;;
59659;SDS011;45534;52.690;6.268;2023-04-01T02:08:53;4.90;;;3.55;;
59659;SDS011;45534;52.690;6.268;2023-04-01T02:11:30;5.95;;;4.38;;
59659;SDS011;45534;52.690;6.268;2023-04-01T02:16:33;6.10;;;3.65;;
59659;SDS011;45534;52.690;6.268;2023-04-01T02:19:05;7.38;;;4.13;;
59659;SDS011;45534;52.690;6.268;2023-04-01T02:21:35;7.45;;;3.90;;
59659;SDS011;45534;52.690;6.268;2023-04-01T02:24:04;7.22;;;4.38;;
59659;SDS011;45534;52.690;6.268;2023-04-01T02:26:32;11.05;;;4.60;;
59659;SDS011;45534;52.690;6.268;2023-04-01T02:28:59;6.53;;;4.10;;
59659;SDS011;45534;52.690;6.268;2023-04-01T02:31:27;5.22;;;3.53;;
59659;SDS011;45534;52.690;6.268;2023-04-01T02:33:54;10.32;;;3.97;;
59659;SDS011;45534;52.690;6.268;2023-04-01T02:36:20;7.40;;;4.93;;
59659;SDS011;45534;52.690;6.268;2023-04-01T02:38:46;6.57;;;3.88;;
59659;SDS011;45534;52.690;6.268;2023-04-01T02:41:12;5.32;;;3.88;;
59659;SDS011;45534;52.690;6.268;2023-04-01T02:43:38;6.13;;;4.05;;
59659;SDS011;45534;52.690;6.268;2023-04-01T02:46:04;7.60;;;3.95;;
59659;SDS011;45534;52.690;6.268;2023-04-01T02:48:30;10.82;;;3.63;;
59659;SDS011;45534;52.690;6.268;2023-04-01T02:50:56;8.90;;;3.92;;
59659;SDS011;45534;52.690;6.268;2023-04-01T02:53:21;7.80;;;4.65;;
59659;SDS011;45534;52.690;6.268;2023-04-01T02:55:47;6.32;;;4.15;;
59659;SDS011;45534;52.690;6.268;2023-04-01T02:58:15;6.55;;;4.57;;
59659;SDS011;45534;52.690;6.268;2023-04-01T03:00:41;6.93;;;3.67;;
59659;SDS011;45534;52.690;6.268;2023-04-01T03:03:08;6.68;;;4.43;;
59659;SDS011;45534;52.690;6.268;2023-04-01T03:05:34;6.68;;;4.82;;
59659;SDS011;45534;52.690;6.268;2023-04-01T03:08:00;6.85;;;3.83;;
59659;SDS011;45534;52.690;6.268;2023-04-01T03:10:26;6.57;;;3.88;;
59659;SDS011;45534;52.690;6.268;2023-04-01T03:12:52;4.75;;;3.80;;
59659;SDS011;45534;52.690;6.268;2023-04-01T03:15:17;5.45;;;3.67;;
59659;SDS011;45534;52.690;6.268;2023-04-01T03:17:43;8.75;;;3.60;;
59659;SDS011;45534;52.690;6.268;2023-04-01T03:20:09;8.85;;;4.22;;
59659;SDS011;45534;52.690;6.268;2023-04-01T03:22:36;7.85;;;3.55;;
59659;SDS011;45534;52.690;6.268;2023-04-01T03:25:03;5.72;;;4.03;;
59659;SDS011;45534;52.690;6.268;2023-04-01T03:27:30;4.93;;;3.72;;
59659;SDS011;45534;52.690;6.268;2023-04-01T03:29:55;8.02;;;4.30;;
59659;SDS011;45534;52.690;6.268;2023-04-01T03:32:21;7.47;;;4.47;;
59659;SDS011;45534;52.690;6.268;2023-04-01T03:34:47;5.88;;;3.88;;
59659;SDS011;45534;52.690;6.268;2023-04-01T03:37:12;6.35;;;4.18;;
59659;SDS011;45534;52.690;6.268;2023-04-01T03:39:39;8.95;;;4.95;;
59659;SDS011;45534;52.690;6.268;2023-04-01T03:42:04;11.80;;;4.40;;
59659;SDS011;45534;52.690;6.268;2023-04-01T03:44:32;8.13;;;3.58;;
59659;SDS011;45534;52.690;6.268;2023-04-01T03:46:58;6.57;;;4.40;;
59659;SDS011;45534;52.690;6.268;2023-04-01T03:49:24;7.55;;;5.10;;
59659;SDS011;45534;52.690;6.268;2023-04-01T03:51:50;9.45;;;5.45;;
59659;SDS011;45534;52.690;6.268;2023-04-01T03:54:16;8.32;;;5.13;;
59659;SDS011;45534;52.690;6.268;2023-04-01T03:56:43;9.30;;;5.10;;
59659;SDS011;45534;52.690;6.268;2023-04-01T03:59:08;8.35;;;5.10;;
59659;SDS011;45534;52.690;6.268;2023-04-01T04:01:34;9.55;;;5.25;;
59659;SDS011;45534;52.690;6.268;2023-04-01T04:04:00;5.50;;;2.88;;
59659;SDS011;45534;52.690;6.268;2023-04-01T04:06:26;9.68;;;4.82;;
59659;SDS011;45534;52.690;6.268;2023-04-01T04:08:53;8.35;;;5.03;;
59659;SDS011;45534;52.690;6.268;2023-04-01T04:11:19;10.07;;;4.93;;
59659;SDS011;45534;52.690;6.268;2023-04-01T04:13:45;8.00;;;5.55;;
59659;SDS011;45534;52.690;6.268;2023-04-01T04:16:13;8.77;;;6.10;;
59659;SDS011;45534;52.690;6.268;2023-04-01T04:18:39;9.52;;;5.93;;
59659;SDS011;45534;52.690;6.268;2023-04-01T04:21:05;10.82;;;5.13;;
59659;SDS011;45534;52.690;6.268;2023-04-01T04:23:31;11.82;;;6.53;;
59659;SDS011;45534;52.690;6.268;2023-04-01T04:28:26;9.73;;;6.30;;
59659;SDS011;45534;52.690;6.268;2023-04-01T04:30:52;8.45;;;4.32;;
59659;SDS011;45534;52.690;6.268;2023-04-01T04:33:19;11.75;;;5.70;;
59659;SDS011;45534;52.690;6.268;2023-04-01T04:35:45;15.18;;;6.75;;
59659;SDS011;45534;52.690;6.268;2023-04-01T04:38:11;8.80;;;4.85;;
59659;SDS011;45534;52.690;6.268;2023-04-01T04:40:37;13.63;;;7.45;;
59659;SDS011;45534;52.690;6.268;2023-04-01T04:43:03;11.48;;;7.63;;
59659;SDS011;45534;52.690;6.268;2023-04-01T04:45:29;14.20;;;7.00;;
59659;SDS011;45534;52.690;6.268;2023-04-01T04:47:55;10.93;;;6.38;;
59659;SDS011;45534;52.690;6.268;2023-04-01T04:50:21;12.63;;;5.95;;
59659;SDS011;45534;52.690;6.268;2023-04-01T04:52:47;13.48;;;6.85;;
59659;SDS011;45534;52.690;6.268;2023-04-01T04:55:13;8.35;;;4.90;;
59659;SDS011;45534;52.690;6.268;2023-04-01T04:57:40;13.23;;;7.28;;
59659;SDS011;45534;52.690;6.268;2023-04-01T05:00:06;10.15;;;5.55;;
59659;SDS011;45534;52.690;6.268;2023-04-01T05:02:32;11.35;;;5.90;;
59659;SDS011;45534;52.690;6.268;2023-04-01T05:04:58;15.90;;;5.80;;
59659;SDS011;45534;52.690;6.268;2023-04-01T05:07:24;10.57;;;6.47;;
59659;SDS011;45534;52.690;6.268;2023-04-01T05:09:50;11.20;;;5.95;;
59659;SDS011;45534;52.690;6.268;2023-04-01T05:12:16;12.15;;;6.35;;
59659;SDS011;45534;52.690;6.268;2023-04-01T05:14:42;8.98;;;6.30;;
59659;SDS011;45534;52.690;6.268;2023-04-01T05:17:13;9.65;;;5.38;;
59659;SDS011;45534;52.690;6.268;2023-04-01T05:19:39;10.93;;;6.03;;
59659;SDS011;45534;52.690;6.268;2023-04-01T05:22:05;13.13;;;5.88;;
59659;SDS011;45534;52.690;6.268;2023-04-01T05:24:31;11.20;;;5.95;;
59659;SDS011;45534;52.690;6.268;2023-04-01T05:26:57;12.98;;;5.85;;
59659;SDS011;45534;52.690;6.268;2023-04-01T05:29:24;13.70;;;6.28;;
59659;SDS011;45534;52.690;6.268;2023-04-01T05:31:50;21.35;;;5.82;;
59659;SDS011;45534;52.690;6.268;2023-04-01T05:34:16;9.10;;;3.90;;
59659;SDS011;45534;52.690;6.268;2023-04-01T05:36:42;11.13;;;6.00;;
59659;SDS011;45534;52.690;6.268;2023-04-01T05:39:08;6.47;;;4.15;;
59659;SDS011;45534;52.690;6.268;2023-04-01T05:41:38;10.30;;;6.05;;
59659;SDS011;45534;52.690;6.268;2023-04-01T05:44:04;4.18;;;3.30;;
59659;SDS011;45534;52.690;6.268;2023-04-01T05:46:30;3.78;;;2.63;;
59659;SDS011;45534;52.690;6.268;2023-04-01T05:48:56;3.90;;;2.28;;
59659;SDS011;45534;52.690;6.268;2023-04-01T05:51:22;2.97;;;2.55;;
59659;SDS011;45534;52.690;6.268;2023-04-01T05:53:48;3.13;;;2.22;;
59659;SDS011;45534;52.690;6.268;2023-04-01T05:56:14;2.53;;;2.25;;
59659;SDS011;45534;52.690;6.268;2023-04-01T05:58:40;2.22;;;1.98;;
59659;SDS011;45534;52.690;6.268;2023-04-01T06:01:10;2.08;;;1.88;;
59659;SDS011;45534;52.690;6.268;2023-04-01T06:03:36;2.78;;;2.42;;
59659;SDS011;45534;52.690;6.268;2023-04-01T06:06:02;4.60;;;2.42;;
59659;SDS011;45534;52.690;6.268;2023-04-01T06:08:30;1.85;;;1.75;;
59659;SDS011;45534;52.690;6.268;2023-04-01T06:14:06;2.22;;;1.65;;
59659;SDS011;45534;52.690;6.268;2023-04-01T06:30:33;2.58;;;2.33;;
59659;SDS011;45534;52.690;6.268;2023-04-01T06:41:21;2.47;;;2.28;;
59659;SDS011;45534;52.690;6.268;2023-04-01T06:44:07;2.78;;;2.40;;
59659;SDS011;45534;52.690;6.268;2023-04-01T06:50:23;3.63;;;2.78;;
59659;SDS011;45534;52.690;6.268;2023-04-01T06:58:21;7.88;;;2.90;;
59659;SDS011;45534;52.690;6.268;2023-04-01T07:01:03;3.55;;;3.28;;
59659;SDS011;45534;52.690;6.268;2023-04-01T07:03:33;4.00;;;2.45;;
59659;SDS011;45534;52.690;6.268;2023-04-01T07:06:42;4.13;;;3.05;;
59659;SDS011;45534;52.690;6.268;2023-04-01T07:09:05;2.03;;;1.88;;
59659;SDS011;45534;52.690;6.268;2023-04-01T07:11:35;3.58;;;2.83;;
59659;SDS011;45534;52.690;6.268;2023-04-01T07:25:11;2.42;;;2.33;;
59659;SDS011;45534;52.690;6.268;2023-04-01T07:27:40;4.57;;;3.65;;
59659;SDS011;45534;52.690;6.268;2023-04-01T07:30:12;5.28;;;2.95;;
59659;SDS011;45534;52.690;6.268;2023-04-01T07:32:51;2.85;;;2.20;;
59659;SDS011;45534;52.690;6.268;2023-04-01T07:35:28;3.40;;;2.80;;
59659;SDS011;45534;52.690;6.268;2023-04-01T07:41:01;6.15;;;3.92;;
59659;SDS011;45534;52.690;6.268;2023-04-01T07:54:37;4.82;;;2.90;;
59659;SDS011;45534;52.690;6.268;2023-04-01T07:57:12;5.47;;;3.13;;
59659;SDS011;45534;52.690;6.268;2023-04-01T08:00:24;13.00;;;7.05;;
59659;SDS011;45534;52.690;6.268;2023-04-01T08:05:22;8.82;;;5.25;;
59659;SDS011;45534;52.690;6.268;2023-04-01T08:13:20;11.02;;;7.38;;
59659;SDS011;45534;52.690;6.268;2023-04-01T08:21:00;9.63;;;6.22;;
59659;SDS011;45534;52.690;6.268;2023-04-01T08:23:42;7.35;;;4.75;;
59659;SDS011;45534;52.690;6.268;2023-04-01T08:26:53;4.55;;;3.17;;
59659;SDS011;45534;52.690;6.268;2023-04-01T08:32:02;8.38;;;4.85;;
59659;SDS011;45534;52.690;6.268;2023-04-01T08:34:35;4.20;;;3.03;;
59659;SDS011;45534;52.690;6.268;2023-04-01T08:37:22;4.00;;;2.88;;
59659;SDS011;45534;52.690;6.268;2023-04-01T08:39:58;3.95;;;3.63;;
59659;SDS011;45534;52.690;6.268;2023-04-01T08:54:29;4.70;;;2.70;;
59659;SDS011;45534;52.690;6.268;2023-04-01T09:16:24;6.28;;;4.68;;
59659;SDS011;45534;52.690;6.268;2023-04-01T09:19:18;3.38;;;2.55;;
59659;SDS011;45534;52.690;6.268;2023-04-01T09:27:29;5.80;;;3.80;;
59659;SDS011;45534;52.690;6.268;2023-04-01T09:38:23;2.40;;;2.20;;
59659;SDS011;45534;52.690;6.268;2023-04-01T09:54:56;1.98;;;1.83;;
59659;SDS011;45534;52.690;6.268;2023-04-01T10:00:29;1.38;;;1.27;;
59659;SDS011;45534;52.690;6.268;2023-04-01T10:26:05;4.72;;;3.47;;
59659;SDS011;45534;52.690;6.268;2023-04-01T10:29:11;5.95;;;4.30;;
59659;SDS011;45534;52.690;6.268;2023-04-01T10:37:15;10.45;;;6.28;;
59659;SDS011;45534;52.690;6.268;2023-04-01T10:46:05;7.05;;;4.28;;
59659;SDS011;45534;52.690;6.268;2023-04-01T10:54:46;8.52;;;5.25;;
59659;SDS011;45534;52.690;6.268;2023-04-01T11:11:20;7.65;;;4.20;;
59659;SDS011;45534;52.690;6.268;2023-04-01T11:19:29;5.90;;;4.25;;
59659;SDS011;45534;52.690;6.268;2023-04-01T11:39:24;13.43;;;6.10;;
59659;SDS011;45534;52.690;6.268;2023-04-01T11:44:39;9.70;;;5.57;;
59659;SDS011;45534;52.690;6.268;2023-04-01T11:49:47;9.63;;;6.32;;
59659;SDS011;45534;52.690;6.268;2023-04-01T12:12:17;6.95;;;4.78;;
59659;SDS011;45534;52.690;6.268;2023-04-01T12:28:54;6.15;;;3.85;;
59659;SDS011;45534;52.690;6.268;2023-04-01T12:31:52;8.77;;;5.38;;
59659;SDS011;45534;52.690;6.268;2023-04-01T12:46:10;5.90;;;3.33;;
59659;SDS011;45534;52.690;6.268;2023-04-01T12:48:58;4.22;;;3.05;;
59659;SDS011;45534;52.690;6.268;2023-04-01T12:52:04;5.50;;;3.90;;
59659;SDS011;45534;52.690;6.268;2023-04-01T13:22:12;4.20;;;3.20;;
59659;SDS011;45534;52.690;6.268;2023-04-01T13:30:05;5.13;;;3.95;;
59659;SDS011;45534;52.690;6.268;2023-04-01T13:32:50;4.50;;;3.30;;
59659;SDS011;45534;52.690;6.268;2023-04-01T13:35:45;4.30;;;3.70;;
59659;SDS011;45534;52.690;6.268;2023-04-01T13:43:31;6.55;;;4.65;;
59659;SDS011;45534;52.690;6.268;2023-04-01T13:48:44;6.43;;;4.25;;
59659;SDS011;45534;52.690;6.268;2023-04-01T13:53:53;8.15;;;6.03;;
59659;SDS011;45534;52.690;6.268;2023-04-01T14:26:50;2.97;;;2.78;;
59659;SDS011;45534;52.690;6.268;2023-04-01T14:32:05;8.13;;;4.15;;
59659;SDS011;45534;52.690;6.268;2023-04-01T14:40:48;2.58;;;1.90;;
59659;SDS011;45534;52.690;6.268;2023-04-01T14:43:51;5.68;;;4.18;;
59659;SDS011;45534;52.690;6.268;2023-04-01T14:46:37;3.35;;;3.05;;
59659;SDS011;45534;52.690;6.268;2023-04-01T14:49:24;2.75;;;2.53;;
59659;SDS011;45534;52.690;6.268;2023-04-01T14:52:22;3.78;;;3.03;;
59659;SDS011;45534;52.690;6.268;2023-04-01T14:54:55;5.28;;;3.72;;
59659;SDS011;45534;52.690;6.268;2023-04-01T14:57:24;2.72;;;2.50;;
59659;SDS011;45534;52.690;6.268;2023-04-01T15:08:10;4.72;;;2.13;;
59659;SDS011;45534;52.690;6.268;2023-04-01T15:16:07;3.33;;;3.00;;
59659;SDS011;45534;52.690;6.268;2023-04-01T15:24:24;3.47;;;3.17;;
59659;SDS011;45534;52.690;6.268;2023-04-01T15:27:20;2.60;;;2.40;;
59659;SDS011;45534;52.690;6.268;2023-04-01T15:30:03;4.20;;;3.80;;
59659;SDS011;45534;52.690;6.268;2023-04-01T15:38:09;4.85;;;3.78;;
59659;SDS011;45534;52.690;6.268;2023-04-01T15:43:48;4.25;;;3.95;;
59659;SDS011;45534;52.690;6.268;2023-04-01T15:46:30;4.95;;;3.70;;
59659;SDS011;45534;52.690;6.268;2023-04-01T15:57:46;3.00;;;2.72;;
59659;SDS011;45534;52.690;6.268;2023-04-01T16:11:22;4.13;;;3.60;;
59659;SDS011;45534;52.690;6.268;2023-04-01T16:14:35;3.20;;;2.88;;
59659;SDS011;45534;52.690;6.268;2023-04-01T16:22:37;2.75;;;2.55;;
59659;SDS011;45534;52.690;6.268;2023-04-01T16:38:32;2.53;;;2.33;;
59659;SDS011;45534;52.690;6.268;2023-04-01T16:41:15;4.20;;;3.67;;
59659;SDS011;45534;52.690;6.268;2023-04-01T16:43:48;2.97;;;2.78;;
59659;SDS011;45534;52.690;6.268;2023-04-01T16:46:26;2.33;;;2.00;;
59659;SDS011;45534;52.690;6.268;2023-04-01T17:02:57;7.03;;;6.32;;
59659;SDS011;45534;52.690;6.268;2023-04-01T17:05:49;5.18;;;4.63;;
59659;SDS011;45534;52.690;6.268;2023-04-01T17:11:24;2.58;;;2.38;;
59659;SDS011;45534;52.690;6.268;2023-04-01T17:22:24;2.13;;;2.03;;
59659;SDS011;45534;52.690;6.268;2023-04-01T17:30:39;8.35;;;3.05;;
59659;SDS011;45534;52.690;6.268;2023-04-01T17:36:04;5.18;;;3.72;;
59659;SDS011;45534;52.690;6.268;2023-04-01T17:53:08;4.82;;;4.32;;
59659;SDS011;45534;52.690;6.268;2023-04-01T17:55:40;6.55;;;4.22;;
59659;SDS011;45534;52.690;6.268;2023-04-01T17:58:28;4.93;;;4.05;;
59659;SDS011;45534;52.690;6.268;2023-04-01T18:04:07;4.57;;;4.18;;
59659;SDS011;45534;52.690;6.268;2023-04-01T18:06:39;3.75;;;3.42;;
59659;SDS011;45534;52.690;6.268;2023-04-01T18:12:06;7.38;;;6.32;;
59659;SDS011;45534;52.690;6.268;2023-04-01T18:15:00;3.97;;;3.58;;
59659;SDS011;45534;52.690;6.268;2023-04-01T18:18:00;4.03;;;3.60;;
59659;SDS011;45534;52.690;6.268;2023-04-01T18:23:53;4.07;;;3.65;;
59659;SDS011;45534;52.690;6.268;2023-04-01T18:26:34;8.82;;;7.60;;
59659;SDS011;45534;52.690;6.268;2023-04-01T18:32:35;9.65;;;5.38;;
59659;SDS011;45534;52.690;6.268;2023-04-01T18:40:43;5.55;;;3.95;;
59659;SDS011;45534;52.690;6.268;2023-04-01T18:57:15;5.47;;;4.80;;
59659;SDS011;45534;52.690;6.268;2023-04-01T18:59:45;5.72;;;4.30;;
59659;SDS011;45534;52.690;6.268;2023-04-01T19:02:31;4.75;;;3.60;;
59659;SDS011;45534;52.690;6.268;2023-04-01T19:05:18;5.35;;;4.80;;
59659;SDS011;45534;52.690;6.268;2023-04-01T19:11:10;4.35;;;3.72;;
59659;SDS011;45534;52.690;6.268;2023-04-01T19:21:58;5.32;;;4.10;;
59659;SDS011;45534;52.690;6.268;2023-04-01T19:25:39;4.43;;;3.55;;
59659;SDS011;45534;52.690;6.268;2023-04-01T19:33:35;7.38;;;5.55;;
59659;SDS011;45534;52.690;6.268;2023-04-01T19:50:49;4.40;;;3.92;;
59659;SDS011;45534;52.690;6.268;2023-04-01T19:56:18;5.80;;;4.93;;
59659;SDS011;45534;52.690;6.268;2023-04-01T20:04:50;5.82;;;4.63;;
59659;SDS011;45534;52.690;6.268;2023-04-01T20:15:55;15.82;;;7.18;;
59659;SDS011;45534;52.690;6.268;2023-04-01T20:18:05;14.68;;;9.23;;
59659;SDS011;45534;52.690;6.268;2023-04-01T20:20:59;11.85;;;8.45;;
59659;SDS011;45534;52.690;6.268;2023-04-01T20:26:11;17.08;;;9.48;;
59659;SDS011;45534;52.690;6.268;2023-04-01T20:39:34;15.63;;;6.75;;
59659;SDS011;45534;52.690;6.268;2023-04-01T20:42:15;4.90;;;4.40;;
59659;SDS011;45534;52.690;6.268;2023-04-01T20:50:45;12.57;;;8.10;;
59659;SDS011;45534;52.690;6.268;2023-04-01T20:59:27;7.80;;;5.38;;
59659;SDS011;45534;52.690;6.268;2023-04-01T21:26:54;8.40;;;5.28;;
59659;SDS011;45534;52.690;6.268;2023-04-01T21:29:30;6.45;;;4.90;;
59659;SDS011;45534;52.690;6.268;2023-04-01T21:57:54;24.45;;;6.20;;
59659;SDS011;45534;52.690;6.268;2023-04-01T22:00:38;6.05;;;4.68;;
59659;SDS011;45534;52.690;6.268;2023-04-01T22:06:06;10.50;;;6.57;;
59659;SDS011;45534;52.690;6.268;2023-04-01T22:08:47;14.02;;;7.93;;
59659;SDS011;45534;52.690;6.268;2023-04-01T22:11:23;6.78;;;5.03;;
59659;SDS011;45534;52.690;6.268;2023-04-01T22:13:59;9.15;;;6.07;;
59659;SDS011;45534;52.690;6.268;2023-04-01T22:19:32;6.95;;;6.22;;
59659;SDS011;45534;52.690;6.268;2023-04-01T22:22:21;11.13;;;8.15;;
59659;SDS011;45534;52.690;6.268;2023-04-01T22:25:07;11.20;;;8.07;;
59659;SDS011;45534;52.690;6.268;2023-04-01T22:27:51;8.45;;;5.28;;
59659;SDS011;45534;52.690;6.268;2023-04-01T22:30:24;8.40;;;5.25;;
59659;SDS011;45534;52.690;6.268;2023-04-01T22:43:49;19.42;;;6.82;;
59659;SDS011;45534;52.690;6.268;2023-04-01T22:49:28;9.38;;;6.28;;
59659;SDS011;45534;52.690;6.268;2023-04-01T22:54:30;10.23;;;4.20;;
59659;SDS011;45534;52.690;6.268;2023-04-01T22:57:04;9.87;;;7.43;;
59659;SDS011;45534;52.690;6.268;2023-04-01T23:02:30;8.55;;;6.88;;
59659;SDS011;45534;52.690;6.268;2023-04-01T23:05:02;18.23;;;8.95;;
59659;SDS011;45534;52.690;6.268;2023-04-01T23:10:19;11.65;;;8.13;;
59659;SDS011;45534;52.690;6.268;2023-04-01T23:12:46;11.23;;;7.40;;
59659;SDS011;45534;52.690;6.268;2023-04-01T23:15:14;7.40;;;5.07;;
59659;SDS011;45534;52.690;6.268;2023-04-01T23:17:50;8.60;;;4.65;;
59659;SDS011;45534;52.690;6.268;2023-04-01T23:26:24;12.82;;;9.15;;
59659;SDS011;45534;52.690;6.268;2023-04-01T23:29:01;9.52;;;7.22;;
59659;SDS011;45534;52.690;6.268;2023-04-01T23:31:38;13.45;;;7.82;;
59659;SDS011;45534;52.690;6.268;2023-04-01T23:36:46;12.55;;;8.35;;
59659;SDS011;45534;52.690;6.268;2023-04-01T23:41:47;11.15;;;6.38;;
59659;SDS011;45534;52.690;6.268;2023-04-01T23:44:15;9.70;;;7.15;;
59659;SDS011;45534;52.690;6.268;2023-04-01T23:46:42;7.75;;;4.93;;
59659;SDS011;45534;52.690;6.268;2023-04-01T23:49:16;10.85;;;7.72;;
59659;SDS011;45534;52.690;6.268;2023-04-01T23:51:52;8.60;;;5.93;;
59659;SDS011;45534;52.690;6.268;2023-04-01T23:54:31;15.02;;;9.68;;
59659;SDS011;45534;52.690;6.268;2023-04-01T23:56:59;9.43;;;6.60;;
